createdAt,value
2019-05-03T00:00:16.083Z,99804.05
2019-05-03T00:03:01.758Z,99807.55
2019-05-03T00:05:37.580Z,99802.33
2019-05-03T00:08:08.388Z,99803.23
2019-05-03T00:10:38.634Z,99805.03
2019-05-03T00:13:08.296Z,99814.67
2019-05-03T00:15:52.322Z,99802.95
2019-05-03T00:18:22.116Z,99812.95
2019-05-03T00:20:52.682Z,99808.85
2019-05-03T00:23:22.814Z,99804.89
2019-05-03T00:25:52.394Z,99805.55
2019-05-03T00:28:21.785Z,99809.22
2019-05-03T00:30:51.845Z,99811.91
2019-05-03T00:33:22.477Z,99802.64
2019-05-03T00:36:04.704Z,99809.45
2019-05-03T00:38:33.729Z,99801.75
2019-05-03T00:41:02.642Z,99806.06
2019-05-03T00:43:31.855Z,99808.23
2019-05-03T00:46:01.988Z,99808.02
2019-05-03T00:48:32.665Z,99812.44
2019-05-03T00:51:02.420Z,99806.84
2019-05-03T00:53:31.831Z,99804.34
2019-05-03T00:56:01.789Z,99807.50
2019-05-03T00:58:31.786Z,99820.47
2019-05-03T01:01:02.688Z,99811.30
2019-05-03T01:03:32.584Z,99812.34
2019-05-03T01:06:02.327Z,99807.72
2019-05-03T01:08:32.667Z,99810.34
2019-05-03T01:11:02.098Z,99807.89
2019-05-03T01:13:32.095Z,99820.40
2019-05-03T01:16:08.622Z,99814.52
2019-05-03T01:18:37.597Z,99808.31
2019-05-03T01:21:06.985Z,99819.98
2019-05-03T01:23:35.861Z,99823.91
2019-05-03T01:26:05.180Z,99819.59
2019-05-03T01:28:34.142Z,99819.00
2019-05-03T01:31:02.991Z,99820.19
2019-05-03T01:33:32.306Z,99819.86
2019-05-03T01:36:02.759Z,99827.55
2019-05-03T01:38:32.120Z,99828.60
2019-05-03T01:41:01.781Z,99826.64
2019-05-03T01:43:31.703Z,99830.66
2019-05-03T01:46:02.735Z,99837.24
2019-05-03T01:49:02.712Z,99834.09
2019-05-03T01:51:52.537Z,99831.89
2019-05-03T01:54:22.859Z,99840.39
2019-05-03T01:56:58.670Z,99843.48
2019-05-03T01:59:22.739Z,99857.70
2019-05-03T02:02:02.282Z,99847.27
2019-05-03T02:04:41.742Z,99831.14
2019-05-03T02:07:11.730Z,99853.89
2019-05-03T02:09:41.716Z,99842.83
2019-05-03T02:12:12.630Z,99843.17
2019-05-03T02:14:42.252Z,99844.14
2019-05-03T02:17:12.458Z,99846.48
2019-05-03T02:19:42.156Z,99857.75
2019-05-03T02:22:12.095Z,99851.00
2019-05-03T02:24:42.220Z,99853.59
2019-05-03T02:27:12.725Z,99844.02
2019-05-03T02:29:41.893Z,99847.23
2019-05-03T02:32:13.188Z,99843.33
2019-05-03T02:34:43.848Z,99844.20
2019-05-03T02:37:13.883Z,99843.55
2019-05-03T02:39:43.058Z,99850.55
2019-05-03T02:42:12.124Z,99850.12
2019-05-03T02:44:41.233Z,99851.59
2019-05-03T02:47:27.841Z,99854.48
2019-05-03T02:50:00.713Z,99844.60
2019-05-03T02:52:36.895Z,99846.29
2019-05-03T02:55:07.742Z,99845.38
2019-05-03T02:57:36.703Z,99856.22
2019-05-03T03:00:08.319Z,99853.86
2019-05-03T03:02:38.384Z,99857.16
2019-05-03T03:05:07.481Z,99857.75
2019-05-03T03:07:37.661Z,99860.05
2019-05-03T03:10:08.197Z,99857.25
2019-05-03T03:12:39.525Z,99859.84
2019-05-03T03:15:08.393Z,99860.06
2019-05-03T03:17:38.827Z,99858.42
2019-05-03T03:20:08.781Z,99868.30
2019-05-03T03:22:45.299Z,99861.83
2019-05-03T03:25:35.970Z,99858.11
2019-05-03T03:28:05.525Z,99864.89
2019-05-03T03:31:28.292Z,99865.10
2019-05-03T03:33:59.546Z,99869.02
2019-05-03T03:36:44.867Z,99871.56
2019-05-03T03:39:00.675Z,99889.39
2019-05-03T03:41:31.014Z,99877.20
2019-05-03T03:44:15.328Z,99886.00
2019-05-03T03:46:45.464Z,99741.59
2019-05-03T03:49:16.222Z,99892.03
2019-05-03T03:51:46.440Z,99895.73
2019-05-03T03:54:18.245Z,99902.34
2019-05-03T03:57:03.005Z,99898.41
2019-05-03T03:59:26.486Z,99897.99
2019-05-03T04:01:56.998Z,99902.00
2019-05-03T04:04:26.570Z,99903.47
2019-05-03T04:07:00.514Z,99904.01
2019-05-03T04:09:27.352Z,99911.52
2019-05-03T04:11:57.144Z,99916.20
2019-05-03T04:14:31.787Z,99919.30
2019-05-03T04:17:26.053Z,99919.00
2019-05-03T04:19:55.997Z,99919.50
2019-05-03T04:22:25.632Z,99928.98
2019-05-03T04:24:55.558Z,99935.45
2019-05-03T04:27:28.025Z,99921.56
2019-05-03T04:29:56.839Z,99935.27
2019-05-03T04:32:28.984Z,99937.25
2019-05-03T04:34:56.264Z,99936.84
2019-05-03T04:37:26.683Z,99934.39
2019-05-03T04:39:56.214Z,99938.41
2019-05-03T04:42:25.684Z,99938.40
2019-05-03T04:44:56.270Z,99944.59
2019-05-03T04:47:26.431Z,99945.80
2019-05-03T04:49:55.711Z,99946.34
2019-05-03T04:52:25.983Z,99951.91
2019-05-03T04:54:57.192Z,99958.30
2019-05-03T04:57:39.912Z,99960.75
2019-05-03T04:59:57.057Z,99963.55
2019-05-03T05:02:26.608Z,99963.34
2019-05-03T05:04:55.898Z,99969.92
2019-05-03T05:07:26.171Z,99974.38
2019-05-03T05:09:56.372Z,99978.70
2019-05-03T05:12:25.586Z,99984.58
2019-05-03T05:14:56.403Z,99985.19
2019-05-03T05:17:35.505Z,99986.23
2019-05-03T05:20:35.738Z,99991.28
2019-05-03T05:23:04.900Z,99995.70
2019-05-03T05:25:38.044Z,99994.66
2019-05-03T05:28:15.110Z,99995.91
2019-05-03T05:30:44.420Z,99998.38
2019-05-03T05:33:25.042Z,100002.91
2019-05-03T05:35:54.692Z,100002.08
2019-05-03T05:38:25.592Z,100006.62
2019-05-03T05:40:55.494Z,100010.09
2019-05-03T05:43:25.542Z,100000.46
2019-05-03T05:45:55.375Z,99999.50
2019-05-03T05:48:30.935Z,100008.66
2019-05-03T05:50:59.830Z,100007.05
2019-05-03T05:53:28.760Z,100008.81
2019-05-03T05:56:22.513Z,100011.64
2019-05-03T05:59:02.028Z,100011.27
2019-05-03T06:01:35.332Z,100015.64
2019-05-03T06:04:05.386Z,100015.64
2019-05-03T06:06:59.577Z,100014.48
2019-05-03T06:09:44.834Z,100019.08
2019-05-03T06:12:38.925Z,100005.88
2019-05-03T06:15:15.055Z,100019.05
2019-05-03T06:17:55.481Z,100022.73
2019-05-03T06:20:37.248Z,100024.56
2019-05-03T06:23:10.741Z,100026.75
2019-05-03T06:25:42.283Z,100030.75
2019-05-03T06:28:20.788Z,100032.66
2019-05-03T06:31:06.130Z,100030.01
2019-05-03T06:33:35.242Z,100028.43
2019-05-03T06:36:04.978Z,100035.73
2019-05-03T06:38:34.440Z,100033.65
2019-05-03T06:41:04.703Z,100036.09
2019-05-03T06:43:34.845Z,100040.14
2019-05-03T06:46:05.366Z,100035.56
2019-05-03T06:48:35.232Z,100041.02
2019-05-03T06:51:08.807Z,100042.01
2019-05-03T06:53:34.870Z,100040.88
2019-05-03T06:56:04.567Z,100038.05
2019-05-03T06:58:36.369Z,100040.59
2019-05-03T07:01:35.651Z,100045.62
2019-05-03T07:04:09.975Z,100041.53
2019-05-03T07:06:46.177Z,100049.69
2019-05-03T07:09:19.883Z,100053.58
2019-05-03T07:11:48.855Z,100050.82
2019-05-03T07:14:17.688Z,100047.92
2019-05-03T07:16:46.613Z,100053.88
2019-05-03T07:19:15.452Z,100061.09
2019-05-03T07:21:44.728Z,100062.64
2019-05-03T07:24:14.631Z,100068.61
2019-05-03T07:26:44.803Z,100064.45
2019-05-03T07:29:15.209Z,100059.10
2019-05-03T07:31:44.734Z,100062.54
2019-05-03T07:34:15.612Z,100063.13
2019-05-03T07:36:44.834Z,100059.54
2019-05-03T07:39:14.578Z,100058.53
2019-05-03T07:41:44.638Z,100067.83
2019-05-03T07:44:15.194Z,100066.41
2019-05-03T07:46:45.202Z,100067.98
2019-05-03T07:49:15.372Z,100067.37
2019-05-03T07:51:44.866Z,100069.44
2019-05-03T07:54:15.707Z,100068.14
2019-05-03T07:56:50.298Z,100081.81
2019-05-03T07:59:19.101Z,100078.56
2019-05-03T08:01:50.783Z,100064.94
2019-05-03T08:04:19.571Z,100071.17
2019-05-03T08:06:48.649Z,100075.38
2019-05-03T08:09:17.636Z,100076.01
2019-05-03T08:11:46.773Z,100066.51
2019-05-03T08:14:18.026Z,100072.05
2019-05-03T08:16:46.568Z,100065.48
2019-05-03T08:19:15.517Z,100061.36
2019-05-03T08:21:45.718Z,100060.66
2019-05-03T08:24:15.019Z,100074.76
2019-05-03T08:26:45.294Z,100060.64
2019-05-03T08:29:18.611Z,100058.98
2019-05-03T08:32:12.921Z,100057.46
2019-05-03T08:35:06.835Z,100058.23
2019-05-03T08:37:48.252Z,100043.28
2019-05-03T08:40:17.933Z,100046.38
2019-05-03T08:42:46.809Z,100046.12
2019-05-03T08:45:15.794Z,100061.48
2019-05-03T08:47:45.146Z,100056.81
2019-05-03T08:50:20.707Z,100048.30
2019-05-03T08:52:45.330Z,100049.42
2019-05-03T08:55:15.851Z,100041.17
2019-05-03T08:57:45.052Z,100036.88
2019-05-03T09:00:16.678Z,100050.21
2019-05-03T09:02:45.880Z,100051.83
2019-05-03T09:05:18.602Z,100058.03
2019-05-03T09:07:46.597Z,100037.67
2019-05-03T09:10:27.258Z,100056.56
2019-05-03T09:13:30.762Z,100054.33
2019-05-03T09:15:59.685Z,100056.67
2019-05-03T09:18:28.608Z,100052.46
2019-05-03T09:20:57.620Z,100049.30
2019-05-03T09:23:26.706Z,100040.11
2019-05-03T09:25:55.588Z,100039.72
2019-05-03T09:28:26.506Z,100038.99
2019-05-03T09:30:55.323Z,100039.78
2019-05-03T09:33:24.957Z,100027.50
2019-05-03T09:35:54.959Z,100026.09
2019-05-03T09:38:25.647Z,100030.41
2019-05-03T09:40:54.772Z,100030.05
2019-05-03T09:43:25.071Z,100023.47
2019-05-03T09:45:54.769Z,100023.60
2019-05-03T09:48:25.530Z,100024.78
2019-05-03T09:50:55.603Z,100017.15
2019-05-03T09:53:26.720Z,100012.12
2019-05-03T09:55:55.722Z,100013.78
2019-05-03T09:58:26.366Z,100005.14
2019-05-03T10:00:55.648Z,99990.58
2019-05-03T10:03:24.848Z,100011.76
2019-05-03T10:05:55.425Z,100013.01
2019-05-03T10:08:25.452Z,100001.25
2019-05-03T10:11:15.136Z,100005.19
2019-05-03T10:13:47.383Z,100019.04
2019-05-03T10:16:15.620Z,99998.66
2019-05-03T10:18:46.009Z,100017.14
2019-05-03T10:21:15.236Z,99998.69
2019-05-03T10:23:45.168Z,100009.98
2019-05-03T10:26:15.083Z,100007.70
2019-05-03T10:28:44.302Z,100006.39
2019-05-03T10:31:13.281Z,100004.31
2019-05-03T10:33:46.871Z,100017.68
2019-05-03T10:36:15.877Z,100017.66
2019-05-03T10:38:46.022Z,100017.61
2019-05-03T10:41:15.194Z,100018.88
2019-05-03T10:43:45.096Z,100016.44
2019-05-03T10:46:15.986Z,100021.47
2019-05-03T10:48:45.426Z,100019.69
2019-05-03T10:51:15.681Z,100015.93
2019-05-03T10:53:47.679Z,100021.64
2019-05-03T10:56:24.499Z,100014.54
2019-05-03T10:58:58.901Z,100018.98
2019-05-03T11:01:35.999Z,100019.38
2019-05-03T11:04:05.422Z,100022.73
2019-05-03T11:06:35.513Z,100015.95
2019-05-03T11:09:05.816Z,100016.09
2019-05-03T11:11:35.326Z,100013.80
2019-05-03T11:14:05.410Z,100012.73
2019-05-03T11:16:35.117Z,100017.34
2019-05-03T11:19:05.507Z,100004.80
2019-05-03T11:21:34.938Z,100007.63
2019-05-03T11:24:03.959Z,100022.88
2019-05-03T11:26:34.995Z,100025.92
2019-05-03T11:29:05.196Z,100006.67
2019-05-03T11:32:00.292Z,100004.34
2019-05-03T11:34:35.495Z,100009.62
2019-05-03T11:37:39.007Z,100009.48
2019-05-03T11:40:09.129Z,100006.87
2019-05-03T11:42:37.940Z,100001.52
2019-05-03T11:45:06.940Z,100005.69
2019-05-03T11:47:35.780Z,100004.67
2019-05-03T11:50:05.247Z,100010.54
2019-05-03T11:52:35.574Z,100002.13
2019-05-03T11:55:11.379Z,100007.09
2019-05-03T11:57:35.960Z,100000.57
2019-05-03T12:00:06.184Z,100022.50
2019-05-03T12:02:51.191Z,100007.03
2019-05-03T12:05:25.314Z,100001.56
2019-05-03T12:07:54.795Z,100000.07
2019-05-03T12:10:36.548Z,100005.78
2019-05-03T12:13:00.129Z,100008.28
2019-05-03T12:15:29.067Z,100011.91
2019-05-03T12:18:00.997Z,100014.73
2019-05-03T12:20:31.758Z,99997.82
2019-05-03T12:23:02.057Z,100012.72
2019-05-03T12:25:32.159Z,100003.58
2019-05-03T12:28:01.342Z,99994.21
2019-05-03T12:30:30.323Z,99984.00
2019-05-03T12:32:59.274Z,99993.70
2019-05-03T12:35:28.104Z,99986.53
2019-05-03T12:37:57.093Z,99984.22
2019-05-03T12:40:26.076Z,99977.50
2019-05-03T12:42:55.591Z,99983.02
2019-05-03T12:45:24.827Z,99967.03
2019-05-03T12:47:55.687Z,99975.70
2019-05-03T12:50:25.184Z,99975.08
2019-05-03T12:52:55.474Z,99976.64
2019-05-03T12:55:24.918Z,99981.97
2019-05-03T12:57:55.616Z,99974.02
2019-05-03T13:00:48.675Z,99963.53
2019-05-03T13:03:24.653Z,99962.63
2019-05-03T13:05:55.619Z,99967.10
2019-05-03T13:08:35.318Z,99962.16
2019-05-03T13:11:05.303Z,99949.40
2019-05-03T13:13:35.896Z,99970.87
2019-05-03T13:16:05.444Z,99957.72
2019-05-03T13:18:35.064Z,99953.18
2019-05-03T13:21:05.834Z,99959.73
2019-05-03T13:23:35.843Z,99938.97
2019-05-03T13:26:05.812Z,99937.22
2019-05-03T13:28:35.293Z,99936.78
2019-05-03T13:31:05.821Z,99932.23
2019-05-03T13:33:35.190Z,99933.37
2019-05-03T13:36:04.769Z,99931.38
2019-05-03T13:38:34.936Z,99926.41
2019-05-03T13:41:06.236Z,99930.73
2019-05-03T13:43:34.943Z,99935.53
2019-05-03T13:46:05.167Z,99911.77
2019-05-03T13:48:42.782Z,99937.95
2019-05-03T13:51:05.426Z,99930.36
2019-05-03T13:53:34.932Z,99920.35
2019-05-03T13:56:04.789Z,99908.42
2019-05-03T13:58:35.874Z,99910.98
2019-05-03T14:01:05.516Z,99907.37
2019-05-03T14:03:35.193Z,99905.88
2019-05-03T14:06:08.388Z,99901.53
2019-05-03T14:08:35.280Z,99901.99
2019-05-03T14:11:05.026Z,99904.25
2019-05-03T14:13:35.352Z,99893.13
2019-05-03T14:16:05.522Z,99895.36
2019-05-03T14:18:35.305Z,99892.75
2019-05-03T14:21:11.397Z,99879.45
2019-05-03T14:23:58.098Z,99880.13
2019-05-03T14:26:27.025Z,99878.98
2019-05-03T14:28:55.865Z,99872.55
2019-05-03T14:31:25.307Z,99878.36
2019-05-03T14:33:55.835Z,99870.83
2019-05-03T14:36:25.193Z,99876.89
2019-05-03T14:38:54.845Z,99875.82
2019-05-03T14:41:25.460Z,99874.41
2019-05-03T14:43:55.664Z,99875.49
2019-05-03T14:46:32.612Z,99890.74
2019-05-03T14:48:55.570Z,99873.07
2019-05-03T14:51:25.338Z,99877.14
2019-05-03T14:53:56.959Z,99861.78
2019-05-03T14:56:45.571Z,99860.61
2019-05-03T14:59:35.946Z,99855.61
2019-05-03T15:02:40.188Z,99860.77
2019-05-03T15:04:57.725Z,99861.89
2019-05-03T15:07:26.645Z,99858.30
2019-05-03T15:09:55.582Z,99857.28
2019-05-03T15:12:25.213Z,99868.09
2019-05-03T15:14:54.690Z,99863.59
2019-05-03T15:17:24.655Z,99869.08
2019-05-03T15:19:54.725Z,99857.52
2019-05-03T15:22:25.357Z,99863.09
2019-05-03T15:24:54.626Z,99856.19
2019-05-03T15:27:24.848Z,99863.17
2019-05-03T15:29:55.563Z,99878.75
2019-05-03T15:32:24.729Z,99866.03
2019-05-03T15:34:55.345Z,99855.00
2019-05-03T15:37:25.462Z,99852.46
2019-05-03T15:39:54.769Z,99863.28
2019-05-03T15:42:24.546Z,99859.27
2019-05-03T15:45:11.221Z,99866.88
2019-05-03T15:47:45.488Z,99860.19
2019-05-03T15:50:15.508Z,99856.28
2019-05-03T15:52:44.579Z,99855.98
2019-05-03T15:55:15.168Z,99851.63
2019-05-03T15:57:44.686Z,99848.45
2019-05-03T16:00:15.573Z,99854.69
2019-05-03T16:02:44.575Z,99855.75
2019-05-03T16:05:15.454Z,99853.59
2019-05-03T16:07:44.641Z,99857.15
2019-05-03T16:10:15.391Z,99851.69
2019-05-03T16:12:44.937Z,99851.69
2019-05-03T16:15:14.066Z,99851.64
2019-05-03T16:17:44.849Z,99855.72
2019-05-03T16:20:14.416Z,99853.03
2019-05-03T16:22:46.391Z,99847.67
2019-05-03T16:25:14.331Z,99849.64
2019-05-03T16:27:50.760Z,99855.27
2019-05-03T16:30:39.003Z,99841.47
2019-05-03T16:33:08.058Z,99850.56
2019-05-03T16:35:37.826Z,99853.03
2019-05-03T16:38:07.102Z,99859.01
2019-05-03T16:40:36.092Z,99867.59
2019-05-03T16:43:05.123Z,99856.44
2019-05-03T16:45:35.048Z,99855.05
2019-05-03T16:48:04.527Z,99856.95
2019-05-03T16:50:34.537Z,99847.27
2019-05-03T16:53:05.454Z,99847.27
2019-05-03T16:55:35.192Z,99855.13
2019-05-03T16:58:04.312Z,99845.64
2019-05-03T17:00:35.189Z,99849.33
2019-05-03T17:03:05.669Z,99854.38
2019-05-03T17:05:52.334Z,99855.62
2019-05-03T17:08:28.251Z,99811.89
2019-05-03T17:10:58.245Z,99859.17
2019-05-03T17:13:27.141Z,99858.59
2019-05-03T17:15:56.033Z,99865.19
2019-05-03T17:18:24.957Z,99860.25
2019-05-03T17:20:54.763Z,99870.05
2019-05-03T17:23:24.572Z,99868.66
2019-05-03T17:25:53.803Z,99871.13
2019-05-03T17:28:24.722Z,99868.58
2019-05-03T17:30:55.260Z,99879.75
2019-05-03T17:33:25.325Z,99871.13
2019-05-03T17:35:54.522Z,99875.17
2019-05-03T17:38:23.409Z,99870.83
2019-05-03T17:41:14.879Z,99869.66
2019-05-03T17:43:50.538Z,99860.88
2019-05-03T17:46:19.385Z,99865.61
2019-05-03T17:48:48.747Z,99872.27
2019-05-03T17:51:35.582Z,99870.11
2019-05-03T17:54:29.794Z,99871.34
2019-05-03T17:57:01.911Z,99874.85
2019-05-03T17:59:35.578Z,99868.43
2019-05-03T18:02:23.737Z,99874.33
2019-05-03T18:05:15.226Z,99871.09
2019-05-03T18:07:57.648Z,99882.05
2019-05-03T18:10:27.447Z,99874.19
2019-05-03T18:12:56.442Z,99872.91
2019-05-03T18:15:25.423Z,99883.27
2019-05-03T18:17:54.869Z,99886.39
2019-05-03T18:20:25.547Z,99880.10
2019-05-03T18:22:54.836Z,99886.25
2019-05-03T18:25:24.864Z,99877.50
2019-05-03T18:27:55.215Z,99880.05
2019-05-03T18:30:24.413Z,99883.89
2019-05-03T18:32:54.426Z,99877.41
2019-05-03T18:35:25.561Z,99885.95
2019-05-03T18:37:58.638Z,99885.60
2019-05-03T18:40:28.422Z,99887.39
2019-05-03T18:43:04.550Z,99887.38
2019-05-03T18:46:00.605Z,99887.27
2019-05-03T18:48:29.587Z,99886.45
2019-05-03T18:50:58.479Z,99885.09
2019-05-03T18:53:27.368Z,99884.06
2019-05-03T18:55:56.405Z,99889.75
2019-05-03T18:58:25.346Z,99890.03
2019-05-03T19:00:54.895Z,99897.94
2019-05-03T19:03:25.228Z,99897.02
2019-05-03T19:05:57.705Z,99894.95
2019-05-03T19:08:45.610Z,99898.23
2019-05-03T19:11:24.526Z,99900.76
2019-05-03T19:13:56.646Z,99899.71
2019-05-03T19:16:39.466Z,99903.91
2019-05-03T19:19:09.079Z,99901.06
2019-05-03T19:21:38.033Z,99904.11
2019-05-03T19:24:07.272Z,99902.24
2019-05-03T19:26:36.224Z,99897.33
2019-05-03T19:29:05.185Z,99900.31
2019-05-03T19:31:35.602Z,99900.44
2019-05-03T19:34:06.051Z,99900.96
2019-05-03T19:36:37.205Z,99897.25
2019-05-03T19:39:06.749Z,99897.92
2019-05-03T19:41:35.790Z,99895.81
2019-05-03T19:44:04.799Z,99897.75
2019-05-03T19:46:35.093Z,99902.70
2019-05-03T19:49:05.074Z,99900.97
2019-05-03T19:51:34.352Z,99894.53
2019-05-03T19:54:05.406Z,99900.14
2019-05-03T19:56:34.567Z,99905.47
2019-05-03T19:59:07.601Z,99907.86
2019-05-03T20:01:46.066Z,99909.43
2019-05-03T20:04:33.959Z,99912.87
2019-05-03T20:07:17.026Z,99911.03
2019-05-03T20:09:46.205Z,99911.03
2019-05-03T20:12:16.107Z,99912.08
2019-05-03T20:14:45.219Z,99910.14
2019-05-03T20:17:14.794Z,99914.45
2019-05-03T20:19:45.163Z,99910.94
2019-05-03T20:22:15.146Z,99909.60
2019-05-03T20:24:44.768Z,99913.92
2019-05-03T20:27:15.829Z,99912.77
2019-05-03T20:29:46.300Z,99913.36
2019-05-03T20:32:15.975Z,99915.79
2019-05-03T20:34:46.699Z,99910.94
2019-05-03T20:37:15.767Z,99905.80
2019-05-03T20:39:45.292Z,99907.89
2019-05-03T20:42:35.581Z,99914.60
2019-05-03T20:45:05.738Z,99908.82
2019-05-03T20:47:42.031Z,99909.19
2019-05-03T20:50:18.293Z,99905.47
2019-05-03T20:52:47.323Z,99898.34
2019-05-03T20:55:16.467Z,99905.54
2019-05-03T20:57:45.390Z,99902.11
2019-05-03T21:00:18.204Z,99903.53
2019-05-03T21:02:53.543Z,99901.88
2019-05-03T21:05:26.874Z,99892.91
2019-05-03T21:07:48.882Z,99899.42
2019-05-03T21:10:18.009Z,99911.44
2019-05-03T21:12:47.043Z,99903.56
2019-05-03T21:15:27.702Z,99900.03
2019-05-03T21:18:15.230Z,99906.12
2019-05-03T21:21:02.236Z,99901.70
2019-05-03T21:23:34.485Z,99901.78
2019-05-03T21:26:13.512Z,99897.43
2019-05-03T21:28:40.186Z,99903.12
2019-05-03T21:31:09.267Z,99900.14
2019-05-03T21:33:38.301Z,99897.67
2019-05-03T21:36:07.254Z,99891.38
2019-05-03T21:38:36.115Z,99897.67
2019-05-03T21:41:05.429Z,99896.83
2019-05-03T21:43:34.983Z,99895.64
2019-05-03T21:46:11.939Z,99891.32
2019-05-03T21:48:57.994Z,99893.56
2019-05-03T21:51:26.917Z,99902.84
2019-05-03T21:53:55.691Z,99903.08
2019-05-03T21:56:25.086Z,99899.47
2019-05-03T21:58:55.289Z,99897.72
2019-05-03T22:01:25.928Z,99886.36
2019-05-03T22:03:54.984Z,99886.73
2019-05-03T22:06:24.629Z,99884.89
2019-05-03T22:08:55.422Z,99879.27
2019-05-03T22:11:25.134Z,99875.77
2019-05-03T22:13:57.170Z,99872.88
2019-05-03T22:16:44.892Z,99871.08
2019-05-03T22:19:16.311Z,99870.98
2019-05-03T22:21:55.308Z,99865.59
2019-05-03T22:24:55.700Z,99873.20
2019-05-03T22:27:24.786Z,99862.50
2019-05-03T22:29:54.588Z,99859.63
2019-05-03T22:32:24.469Z,99860.64
2019-05-03T22:34:54.337Z,99857.81
2019-05-03T22:37:25.244Z,99852.84
2019-05-03T22:39:54.965Z,99858.80
2019-05-03T22:42:25.307Z,99851.11
2019-05-03T22:44:55.356Z,99849.95
2019-05-03T22:47:25.344Z,99842.55
2019-05-03T22:49:54.851Z,99840.87
2019-05-03T22:52:25.707Z,99833.73
2019-05-03T22:54:55.491Z,99836.61
2019-05-03T22:57:24.907Z,99828.86
2019-05-03T22:59:53.829Z,99826.28
2019-05-03T23:02:24.900Z,99819.28
2019-05-03T23:04:55.421Z,99823.70
2019-05-03T23:07:24.965Z,99819.52
2019-05-03T23:09:54.180Z,99810.98
2019-05-03T23:12:23.079Z,99805.72
2019-05-03T23:14:52.120Z,99803.66
2019-05-03T23:17:21.239Z,99797.48
2019-05-03T23:19:56.536Z,99777.63
2019-05-03T23:22:28.344Z,99793.69
2019-05-03T23:24:57.362Z,99780.09
2019-05-03T23:27:26.617Z,99774.85
2019-05-03T23:29:56.002Z,99772.48
2019-05-03T23:32:24.933Z,99771.94
2019-05-03T23:34:54.407Z,99777.09
2019-05-03T23:37:23.550Z,99774.85
2019-05-03T23:39:52.496Z,99759.83
2019-05-03T23:42:21.275Z,99753.19
2019-05-03T23:44:50.263Z,99746.93
2019-05-03T23:47:34.491Z,99746.43
2019-05-03T23:50:04.809Z,99743.36
2019-05-03T23:52:38.314Z,99750.79
2019-05-03T23:55:19.144Z,99746.27
2019-05-03T23:57:48.216Z,99744.59
